Kite, Georgia
Current Conditions -  °F | °C
As of 2:15 AM on Sunday 23 Nov 2014 (Local Time) from KSBO Reporting Station
Heavy Rain Heavy Rain  
Wind Chill: 57°   Ceiling: 4200
Heat Index: 57°   Visibility: 4mi
Dew Point: 57°   Wind: 12mph
Humidity: 100%   Direction: 110°ESE
Pressure: 30.19"   Gusts: NA
Location:  32.69°N, 82.51°W
Report Text: KSBO 230715Z AUTO 11010KT 4SM +RA SCT024 BKN042 OVC055 14/14 A3019 RMK AO2
Loading
Personal Weather Stations






























Interactive Weather Map New forecast layout! Learn more

10-Day Weather Forecast

Advertisements
Track Severe Weather on mobile